sensor_id;sensor_type;location;lat;lon;timestamp;temperature;humidity
16491;DHT22;8356;51.214;3.270;2022-10-31T00:01:36;384.40;2329.60
16491;DHT22;8356;51.214;3.270;2022-10-31T00:04:02;384.40;2329.60
16491;DHT22;8356;51.214;3.270;2022-10-31T00:06:28;384.40;2329.60
16491;DHT22;8356;51.214;3.270;2022-10-31T00:09:04;384.40;2329.60
16491;DHT22;8356;51.214;3.270;2022-10-31T00:11:30;384.30;2329.60
16491;DHT22;8356;51.214;3.270;2022-10-31T00:13:57;384.30;2329.60
16491;DHT22;8356;51.214;3.270;2022-10-31T00:16:24;384.20;2329.60
16491;DHT22;8356;51.214;3.270;2022-10-31T00:18:55;384.20;2329.60
16491;DHT22;8356;51.214;3.270;2022-10-31T00:21:22;384.20;2329.60
16491;DHT22;8356;51.214;3.270;2022-10-31T00:23:48;384.20;2329.60
16491;DHT22;8356;51.214;3.270;2022-10-31T00:26:14;384.20;2329.60
16491;DHT22;8356;51.214;3.270;2022-10-31T00:28:40;384.30;2329.60
16491;DHT22;8356;51.214;3.270;2022-10-31T00:31:08;384.20;2329.60
16491;DHT22;8356;51.214;3.270;2022-10-31T00:33:35;384.20;2329.60
16491;DHT22;8356;51.214;3.270;2022-10-31T00:36:02;384.20;2329.60
16491;DHT22;8356;51.214;3.270;2022-10-31T00:38:28;384.10;2329.60
16491;DHT22;8356;51.214;3.270;2022-10-31T00:40:54;384.10;2329.60
16491;DHT22;8356;51.214;3.270;2022-10-31T00:43:19;384.10;2329.60
16491;DHT22;8356;51.214;3.270;2022-10-31T00:45:45;384.00;2329.60
16491;DHT22;8356;51.214;3.270;2022-10-31T00:48:11;384.00;2329.60
16491;DHT22;8356;51.214;3.270;2022-10-31T00:50:37;384.10;2329.60
16491;DHT22;8356;51.214;3.270;2022-10-31T00:53:03;384.10;2329.60
16491;DHT22;8356;51.214;3.270;2022-10-31T00:55:29;384.10;2329.60
16491;DHT22;8356;51.214;3.270;2022-10-31T00:57:54;384.10;2329.60
16491;DHT22;8356;51.214;3.270;2022-10-31T01:00:20;384.20;2329.60
16491;DHT22;8356;51.214;3.270;2022-10-31T01:02:46;384.10;2329.60
16491;DHT22;8356;51.214;3.270;2022-10-31T01:05:12;384.20;2329.60
16491;DHT22;8356;51.214;3.270;2022-10-31T01:07:39;384.00;2329.60
16491;DHT22;8356;51.214;3.270;2022-10-31T01:10:06;384.00;2329.60
16491;DHT22;8356;51.214;3.270;2022-10-31T01:12:43;359.30;2329.60
16491;DHT22;8356;51.214;3.270;2022-10-31T01:15:11;384.40;2329.60
16491;DHT22;8356;51.214;3.270;2022-10-31T01:17:37;359.30;2329.60
16491;DHT22;8356;51.214;3.270;2022-10-31T01:20:04;359.30;2329.60
16491;DHT22;8356;51.214;3.270;2022-10-31T01:22:31;359.30;2329.60
16491;DHT22;8356;51.214;3.270;2022-10-31T01:24:56;359.20;2329.60
16491;DHT22;8356;51.214;3.270;2022-10-31T01:27:22;359.20;2329.60
16491;DHT22;8356;51.214;3.270;2022-10-31T01:29:48;359.20;2329.60
16491;DHT22;8356;51.214;3.270;2022-10-31T01:32:13;359.10;2329.60
16491;DHT22;8356;51.214;3.270;2022-10-31T01:34:39;359.20;2329.60
16491;DHT22;8356;51.214;3.270;2022-10-31T01:37:05;359.20;2329.60
16491;DHT22;8356;51.214;3.270;2022-10-31T01:39:30;359.20;2329.60
16491;DHT22;8356;51.214;3.270;2022-10-31T01:41:56;359.20;2329.60
16491;DHT22;8356;51.214;3.270;2022-10-31T01:46:51;359.30;2329.60
16491;DHT22;8356;51.214;3.270;2022-10-31T01:49:21;359.30;2329.60
16491;DHT22;8356;51.214;3.270;2022-10-31T01:51:57;359.30;2329.60
16491;DHT22;8356;51.214;3.270;2022-10-31T01:54:26;359.10;2329.60
16491;DHT22;8356;51.214;3.270;2022-10-31T01:56:56;359.20;2329.60
16491;DHT22;8356;51.214;3.270;2022-10-31T01:59:23;359.20;2329.60
16491;DHT22;8356;51.214;3.270;2022-10-31T02:01:50;359.10;2329.60
16491;DHT22;8356;51.214;3.270;2022-10-31T02:04:18;359.20;2329.60
16491;DHT22;8356;51.214;3.270;2022-10-31T02:06:51;359.20;2329.60
16491;DHT22;8356;51.214;3.270;2022-10-31T02:09:19;359.10;2329.60
16491;DHT22;8356;51.214;3.270;2022-10-31T02:11:53;359.10;2329.60
16491;DHT22;8356;51.214;3.270;2022-10-31T02:14:22;359.10;2329.60
16491;DHT22;8356;51.214;3.270;2022-10-31T02:16:49;359.10;2329.60
16491;DHT22;8356;51.214;3.270;2022-10-31T02:19:41;359.00;2329.60
16491;DHT22;8356;51.214;3.270;2022-10-31T02:22:29;359.00;2329.60
16491;DHT22;8356;51.214;3.270;2022-10-31T02:28:03;359.10;2329.60
16491;DHT22;8356;51.214;3.270;2022-10-31T02:38:52;359.10;2329.60
16491;DHT22;8356;51.214;3.270;2022-10-31T02:41:37;359.00;2329.60
16491;DHT22;8356;51.214;3.270;2022-10-31T02:44:22;359.10;2329.60
16491;DHT22;8356;51.214;3.270;2022-10-31T02:46:56;359.30;2329.60
16491;DHT22;8356;51.214;3.270;2022-10-31T02:52:24;359.20;2329.60
16491;DHT22;8356;51.214;3.270;2022-10-31T02:54:51;359.10;2329.60
16491;DHT22;8356;51.214;3.270;2022-10-31T02:57:20;359.10;2329.60
16491;DHT22;8356;51.214;3.270;2022-10-31T02:59:53;359.10;2329.60
16491;DHT22;8356;51.214;3.270;2022-10-31T03:02:37;359.10;2329.60
16491;DHT22;8356;51.214;3.270;2022-10-31T03:11:05;359.00;2329.60
16491;DHT22;8356;51.214;3.270;2022-10-31T03:16:22;359.00;2329.60
16491;DHT22;8356;51.214;3.270;2022-10-31T03:19:02;359.00;2329.60
16491;DHT22;8356;51.214;3.270;2022-10-31T03:21:47;359.00;2329.60
16491;DHT22;8356;51.214;3.270;2022-10-31T03:24:15;358.80;2329.60
16491;DHT22;8356;51.214;3.270;2022-10-31T03:26:49;358.70;2329.60
16491;DHT22;8356;51.214;3.270;2022-10-31T03:29:20;358.80;2329.60
16491;DHT22;8356;51.214;3.270;2022-10-31T03:32:21;358.90;2329.60
16491;DHT22;8356;51.214;3.270;2022-10-31T03:34:46;358.90;2329.60
16491;DHT22;8356;51.214;3.270;2022-10-31T03:37:16;358.90;2329.60
16491;DHT22;8356;51.214;3.270;2022-10-31T03:39:44;358.90;2329.60
16491;DHT22;8356;51.214;3.270;2022-10-31T03:42:18;358.80;2329.60
16491;DHT22;8356;51.214;3.270;2022-10-31T03:44:57;358.80;2329.60
16491;DHT22;8356;51.214;3.270;2022-10-31T03:47:25;358.70;2329.60
16491;DHT22;8356;51.214;3.270;2022-10-31T03:49:51;358.70;2329.60
16491;DHT22;8356;51.214;3.270;2022-10-31T03:52:25;358.80;2329.60
16491;DHT22;8356;51.214;3.270;2022-10-31T03:54:58;358.80;2329.60
16491;DHT22;8356;51.214;3.270;2022-10-31T03:57:29;358.80;2329.60
16491;DHT22;8356;51.214;3.270;2022-10-31T04:00:06;358.80;2329.60
16491;DHT22;8356;51.214;3.270;2022-10-31T04:02:36;358.80;2329.60
16491;DHT22;8356;51.214;3.270;2022-10-31T04:05:04;358.80;2329.60
16491;DHT22;8356;51.214;3.270;2022-10-31T04:07:35;358.70;2329.60
16491;DHT22;8356;51.214;3.270;2022-10-31T04:10:05;358.70;2329.60
16491;DHT22;8356;51.214;3.270;2022-10-31T04:12:33;358.70;2329.60
16491;DHT22;8356;51.214;3.270;2022-10-31T04:15:02;358.70;2329.60
16491;DHT22;8356;51.214;3.270;2022-10-31T04:17:32;358.80;2329.60
16491;DHT22;8356;51.214;3.270;2022-10-31T04:19:59;358.70;2329.60
16491;DHT22;8356;51.214;3.270;2022-10-31T04:22:25;358.80;2329.60
16491;DHT22;8356;51.214;3.270;2022-10-31T04:24:51;358.80;2329.60
16491;DHT22;8356;51.214;3.270;2022-10-31T04:27:17;358.80;2329.60
16491;DHT22;8356;51.214;3.270;2022-10-31T04:29:42;358.70;2329.60
16491;DHT22;8356;51.214;3.270;2022-10-31T04:32:08;358.80;2329.60
16491;DHT22;8356;51.214;3.270;2022-10-31T04:34:34;358.70;2329.60
16491;DHT22;8356;51.214;3.270;2022-10-31T04:36:59;358.70;2329.60
16491;DHT22;8356;51.214;3.270;2022-10-31T04:39:25;358.60;2329.60
16491;DHT22;8356;51.214;3.270;2022-10-31T04:41:50;358.60;2329.60
16491;DHT22;8356;51.214;3.270;2022-10-31T04:44:16;358.60;2329.60
16491;DHT22;8356;51.214;3.270;2022-10-31T04:46:42;358.60;2329.60
16491;DHT22;8356;51.214;3.270;2022-10-31T04:49:07;358.60;2329.60
16491;DHT22;8356;51.214;3.270;2022-10-31T04:51:33;358.60;2329.60
16491;DHT22;8356;51.214;3.270;2022-10-31T04:53:58;358.50;2329.60
16491;DHT22;8356;51.214;3.270;2022-10-31T04:56:24;358.50;2329.60
16491;DHT22;8356;51.214;3.270;2022-10-31T04:58:49;358.40;2329.60
16491;DHT22;8356;51.214;3.270;2022-10-31T05:01:15;358.40;2329.60
16491;DHT22;8356;51.214;3.270;2022-10-31T05:03:41;358.40;2329.60
16491;DHT22;8356;51.214;3.270;2022-10-31T05:06:07;333.70;2329.60
16491;DHT22;8356;51.214;3.270;2022-10-31T05:08:33;358.40;2329.60
16491;DHT22;8356;51.214;3.270;2022-10-31T05:11:03;358.40;2329.60
16491;DHT22;8356;51.214;3.270;2022-10-31T05:13:29;358.40;2329.60
16491;DHT22;8356;51.214;3.270;2022-10-31T05:15:55;333.60;2329.60
16491;DHT22;8356;51.214;3.270;2022-10-31T05:18:20;333.70;2329.60
16491;DHT22;8356;51.214;3.270;2022-10-31T05:20:46;333.70;2329.60
16491;DHT22;8356;51.214;3.270;2022-10-31T05:23:12;333.70;2329.60
16491;DHT22;8356;51.214;3.270;2022-10-31T05:25:40;333.60;2329.60
16491;DHT22;8356;51.214;3.270;2022-10-31T05:28:06;333.70;2329.60
16491;DHT22;8356;51.214;3.270;2022-10-31T05:30:33;333.70;2329.60
16491;DHT22;8356;51.214;3.270;2022-10-31T05:32:59;333.70;2329.60
16491;DHT22;8356;51.214;3.270;2022-10-31T05:35:30;333.70;2329.60
16491;DHT22;8356;51.214;3.270;2022-10-31T05:37:56;358.40;2329.60
16491;DHT22;8356;51.214;3.270;2022-10-31T05:40:24;333.70;2329.60
16491;DHT22;8356;51.214;3.270;2022-10-31T05:42:54;333.70;2329.60
16491;DHT22;8356;51.214;3.270;2022-10-31T05:45:21;333.70;2329.60
16491;DHT22;8356;51.214;3.270;2022-10-31T05:47:54;358.40;2329.60
16491;DHT22;8356;51.214;3.270;2022-10-31T05:50:20;358.40;2329.60
16491;DHT22;8356;51.214;3.270;2022-10-31T05:52:46;333.70;2329.60
16491;DHT22;8356;51.214;3.270;2022-10-31T05:55:12;333.70;2329.60
16491;DHT22;8356;51.214;3.270;2022-10-31T05:57:37;333.50;2329.60
16491;DHT22;8356;51.214;3.270;2022-10-31T06:00:04;333.50;2329.60
16491;DHT22;8356;51.214;3.270;2022-10-31T06:02:30;333.50;2329.60
16491;DHT22;8356;51.214;3.270;2022-10-31T06:05:00;333.70;2329.60
16491;DHT22;8356;51.214;3.270;2022-10-31T06:07:26;333.60;2329.60
16491;DHT22;8356;51.214;3.270;2022-10-31T06:09:52;333.60;2329.60
16491;DHT22;8356;51.214;3.270;2022-10-31T06:12:17;333.60;2329.60
16491;DHT22;8356;51.214;3.270;2022-10-31T06:14:43;333.50;2329.60
16491;DHT22;8356;51.214;3.270;2022-10-31T06:17:08;333.60;2329.60
16491;DHT22;8356;51.214;3.270;2022-10-31T06:19:34;333.50;2329.60
16491;DHT22;8356;51.214;3.270;2022-10-31T06:21:59;333.60;2329.60
16491;DHT22;8356;51.214;3.270;2022-10-31T06:24:25;333.60;2329.60
16491;DHT22;8356;51.214;3.270;2022-10-31T06:26:51;333.60;2329.60
16491;DHT22;8356;51.214;3.270;2022-10-31T06:29:16;358.40;2329.60
16491;DHT22;8356;51.214;3.270;2022-10-31T06:31:42;333.60;2329.60
16491;DHT22;8356;51.214;3.270;2022-10-31T06:34:07;333.60;2329.60
16491;DHT22;8356;51.214;3.270;2022-10-31T06:36:33;333.60;2329.60
16491;DHT22;8356;51.214;3.270;2022-10-31T06:39:00;333.50;2329.60
16491;DHT22;8356;51.214;3.270;2022-10-31T06:41:26;333.50;2329.60
16491;DHT22;8356;51.214;3.270;2022-10-31T06:43:51;333.70;2329.60
16491;DHT22;8356;51.214;3.270;2022-10-31T06:46:17;333.70;2329.60
16491;DHT22;8356;51.214;3.270;2022-10-31T06:48:43;358.40;2329.60
16491;DHT22;8356;51.214;3.270;2022-10-31T06:51:08;358.40;2329.60
16491;DHT22;8356;51.214;3.270;2022-10-31T06:53:34;333.70;2329.60
16491;DHT22;8356;51.214;3.270;2022-10-31T06:56:00;333.60;2329.60
16491;DHT22;8356;51.214;3.270;2022-10-31T06:58:25;333.60;2329.60
16491;DHT22;8356;51.214;3.270;2022-10-31T07:00:51;333.70;2329.60
16491;DHT22;8356;51.214;3.270;2022-10-31T07:03:17;333.70;2329.60
16491;DHT22;8356;51.214;3.270;2022-10-31T07:05:43;333.70;2329.60
16491;DHT22;8356;51.214;3.270;2022-10-31T07:08:11;333.70;2329.60
16491;DHT22;8356;51.214;3.270;2022-10-31T07:10:38;333.70;2329.60
16491;DHT22;8356;51.214;3.270;2022-10-31T07:13:06;358.40;2329.60
16491;DHT22;8356;51.214;3.270;2022-10-31T07:15:36;358.40;2329.60
16491;DHT22;8356;51.214;3.270;2022-10-31T07:18:04;358.40;2329.60
16491;DHT22;8356;51.214;3.270;2022-10-31T07:20:30;358.40;2329.60
16491;DHT22;8356;51.214;3.270;2022-10-31T07:22:56;358.50;2329.60
16491;DHT22;8356;51.214;3.270;2022-10-31T07:25:22;358.50;2329.60
16491;DHT22;8356;51.214;3.270;2022-10-31T07:27:48;358.40;2329.60
16491;DHT22;8356;51.214;3.270;2022-10-31T07:30:14;358.40;2329.60
16491;DHT22;8356;51.214;3.270;2022-10-31T07:32:51;358.60;2329.60
16491;DHT22;8356;51.214;3.270;2022-10-31T07:35:21;358.60;2329.60
16491;DHT22;8356;51.214;3.270;2022-10-31T07:37:47;358.60;2329.60
16491;DHT22;8356;51.214;3.270;2022-10-31T07:40:13;358.60;2329.60
16491;DHT22;8356;51.214;3.270;2022-10-31T07:42:41;358.70;2329.60
16491;DHT22;8356;51.214;3.270;2022-10-31T07:45:10;358.60;2329.60
16491;DHT22;8356;51.214;3.270;2022-10-31T07:47:40;358.60;2329.60
16491;DHT22;8356;51.214;3.270;2022-10-31T07:50:07;358.70;2329.60
16491;DHT22;8356;51.214;3.270;2022-10-31T07:52:33;358.70;2329.60
16491;DHT22;8356;51.214;3.270;2022-10-31T07:54:58;358.70;2329.60
16491;DHT22;8356;51.214;3.270;2022-10-31T07:57:24;358.70;2329.60
16491;DHT22;8356;51.214;3.270;2022-10-31T07:59:49;358.80;2329.60
16491;DHT22;8356;51.214;3.270;2022-10-31T08:02:15;358.90;2329.60
16491;DHT22;8356;51.214;3.270;2022-10-31T08:04:41;358.90;2329.60
16491;DHT22;8356;51.214;3.270;2022-10-31T08:07:06;358.90;2329.60
16491;DHT22;8356;51.214;3.270;2022-10-31T08:09:32;359.00;2329.60
16491;DHT22;8356;51.214;3.270;2022-10-31T08:11:57;359.10;2329.60
16491;DHT22;8356;51.214;3.270;2022-10-31T08:14:23;359.10;2329.60
16491;DHT22;8356;51.214;3.270;2022-10-31T08:16:49;359.10;2329.60
16491;DHT22;8356;51.214;3.270;2022-10-31T08:19:14;359.10;2329.60
16491;DHT22;8356;51.214;3.270;2022-10-31T08:21:40;359.10;2329.60
16491;DHT22;8356;51.214;3.270;2022-10-31T08:24:06;359.20;2329.60
16491;DHT22;8356;51.214;3.270;2022-10-31T08:26:32;359.30;2329.60
16491;DHT22;8356;51.214;3.270;2022-10-31T08:28:58;384.00;2329.60
16491;DHT22;8356;51.214;3.270;2022-10-31T08:31:23;384.20;2329.60
16491;DHT22;8356;51.214;3.270;2022-10-31T08:33:52;384.20;2329.60
16491;DHT22;8356;51.214;3.270;2022-10-31T08:36:18;384.20;2329.60
16491;DHT22;8356;51.214;3.270;2022-10-31T08:38:43;384.20;2329.60
16491;DHT22;8356;51.214;3.270;2022-10-31T08:41:09;384.30;2329.60
16491;DHT22;8356;51.214;3.270;2022-10-31T08:43:34;384.40;2329.60
16491;DHT22;8356;51.214;3.270;2022-10-31T08:46:00;384.40;2329.60
16491;DHT22;8356;51.214;3.270;2022-10-31T08:48:26;384.40;2329.60
16491;DHT22;8356;51.214;3.270;2022-10-31T08:50:55;384.50;2329.60
16491;DHT22;8356;51.214;3.270;2022-10-31T08:53:21;384.60;2329.60
16491;DHT22;8356;51.214;3.270;2022-10-31T08:55:48;384.70;2329.60
16491;DHT22;8356;51.214;3.270;2022-10-31T08:58:17;384.90;2329.60
16491;DHT22;8356;51.214;3.270;2022-10-31T09:00:45;384.90;2329.60
16491;DHT22;8356;51.214;3.270;2022-10-31T09:03:24;409.60;2355.20
16491;DHT22;8356;51.214;3.270;2022-10-31T09:05:50;409.60;2355.20
16491;DHT22;8356;51.214;3.270;2022-10-31T09:08:16;409.70;2355.20
16491;DHT22;8356;51.214;3.270;2022-10-31T09:10:42;409.70;2355.20
16491;DHT22;8356;51.214;3.270;2022-10-31T09:13:17;409.70;2355.20
16491;DHT22;8356;51.214;3.270;2022-10-31T09:15:44;409.60;2355.20
16491;DHT22;8356;51.214;3.270;2022-10-31T09:18:10;409.60;2355.20
16491;DHT22;8356;51.214;3.270;2022-10-31T09:20:38;384.60;2329.60
16491;DHT22;8356;51.214;3.270;2022-10-31T09:23:13;409.70;2355.20
16491;DHT22;8356;51.214;3.270;2022-10-31T09:25:39;409.70;2355.20
16491;DHT22;8356;51.214;3.270;2022-10-31T09:28:07;409.80;2355.20
16491;DHT22;8356;51.214;3.270;2022-10-31T09:30:35;409.80;2355.20
16491;DHT22;8356;51.214;3.270;2022-10-31T09:33:03;409.80;2355.20
16491;DHT22;8356;51.214;3.270;2022-10-31T09:35:29;409.90;2355.20
16491;DHT22;8356;51.214;3.270;2022-10-31T09:38:02;409.90;2355.20
16491;DHT22;8356;51.214;3.270;2022-10-31T09:40:47;409.90;2355.20
16491;DHT22;8356;51.214;3.270;2022-10-31T09:51:34;410.20;2355.20
16491;DHT22;8356;51.214;3.270;2022-10-31T09:57:01;410.20;2355.20
16491;DHT22;8356;51.214;3.270;2022-10-31T09:59:31;410.30;2355.20
16491;DHT22;8356;51.214;3.270;2022-10-31T10:02:19;410.30;2355.20
16491;DHT22;8356;51.214;3.270;2022-10-31T10:04:56;410.40;2355.20
16491;DHT22;8356;51.214;3.270;2022-10-31T10:10:10;410.50;2355.20
16491;DHT22;8356;51.214;3.270;2022-10-31T10:15:46;410.50;2355.20
16491;DHT22;8356;51.214;3.270;2022-10-31T10:21:38;435.30;2355.20
16491;DHT22;8356;51.214;3.270;2022-10-31T10:26:37;435.30;2355.20
16491;DHT22;8356;51.214;3.270;2022-10-31T10:31:42;435.30;2355.20
16491;DHT22;8356;51.214;3.270;2022-10-31T10:37:13;435.40;2355.20
16491;DHT22;8356;51.214;3.270;2022-10-31T10:39:48;435.40;2355.20
16491;DHT22;8356;51.214;3.270;2022-10-31T10:42:16;435.40;2355.20
16491;DHT22;8356;51.214;3.270;2022-10-31T10:45:13;435.50;2355.20
16491;DHT22;8356;51.214;3.270;2022-10-31T10:48:06;435.60;2355.20
16491;DHT22;8356;51.214;3.270;2022-10-31T10:50:38;435.60;2355.20
16491;DHT22;8356;51.214;3.270;2022-10-31T10:56:47;435.70;2355.20
16491;DHT22;8356;51.214;3.270;2022-10-31T10:59:11;435.80;2355.20
16491;DHT22;8356;51.214;3.270;2022-10-31T11:01:39;435.90;2355.20
16491;DHT22;8356;51.214;3.270;2022-10-31T11:07:11;436.10;2355.20
16491;DHT22;8356;51.214;3.270;2022-10-31T11:09:37;460.90;2380.80
16491;DHT22;8356;51.214;3.270;2022-10-31T11:12:25;460.90;2380.80
16491;DHT22;8356;51.214;3.270;2022-10-31T11:14:55;461.00;2380.80
16491;DHT22;8356;51.214;3.270;2022-10-31T11:17:29;461.00;2380.80
16491;DHT22;8356;51.214;3.270;2022-10-31T11:22:27;461.10;2380.80
16491;DHT22;8356;51.214;3.270;2022-10-31T11:24:52;461.10;2380.80
16491;DHT22;8356;51.214;3.270;2022-10-31T11:27:23;461.20;2380.80
16491;DHT22;8356;51.214;3.270;2022-10-31T11:29:50;461.30;2380.80
16491;DHT22;8356;51.214;3.270;2022-10-31T11:32:21;461.20;2380.80
16491;DHT22;8356;51.214;3.270;2022-10-31T11:34:49;461.20;2380.80
16491;DHT22;8356;51.214;3.270;2022-10-31T11:37:27;461.10;2380.80
16491;DHT22;8356;51.214;3.270;2022-10-31T11:39:58;461.00;2380.80
16491;DHT22;8356;51.214;3.270;2022-10-31T11:42:27;460.90;2380.80
16491;DHT22;8356;51.214;3.270;2022-10-31T11:44:55;460.90;2380.80
16491;DHT22;8356;51.214;3.270;2022-10-31T11:47:26;460.80;2380.80
16491;DHT22;8356;51.214;3.270;2022-10-31T11:49:52;460.80;2380.80
16491;DHT22;8356;51.214;3.270;2022-10-31T11:52:30;461.00;2380.80
16491;DHT22;8356;51.214;3.270;2022-10-31T11:57:45;461.30;2380.80
16491;DHT22;8356;51.214;3.270;2022-10-31T12:00:23;461.40;2380.80
16491;DHT22;8356;51.214;3.270;2022-10-31T12:02:50;461.50;2380.80
16491;DHT22;8356;51.214;3.270;2022-10-31T12:05:27;461.40;2380.80
16491;DHT22;8356;51.214;3.270;2022-10-31T12:07:58;461.50;2380.80
16491;DHT22;8356;51.214;3.270;2022-10-31T12:10:54;461.50;2380.80
16491;DHT22;8356;51.214;3.270;2022-10-31T12:13:31;461.60;2380.80
16491;DHT22;8356;51.214;3.270;2022-10-31T12:16:14;461.70;2380.80
16491;DHT22;8356;51.214;3.270;2022-10-31T12:19:05;461.60;2380.80
16491;DHT22;8356;51.214;3.270;2022-10-31T12:24:50;461.60;2380.80
16491;DHT22;8356;51.214;3.270;2022-10-31T12:30:21;461.70;2380.80
16491;DHT22;8356;51.214;3.270;2022-10-31T12:36:02;486.40;2380.80
16491;DHT22;8356;51.214;3.270;2022-10-31T12:44:16;486.40;2380.80
16491;DHT22;8356;51.214;3.270;2022-10-31T12:47:13;486.40;2380.80
16491;DHT22;8356;51.214;3.270;2022-10-31T12:55:00;486.60;2380.80
16491;DHT22;8356;51.214;3.270;2022-10-31T12:57:36;486.50;2380.80
16491;DHT22;8356;51.214;3.270;2022-10-31T13:02:52;486.60;2380.80
16491;DHT22;8356;51.214;3.270;2022-10-31T13:05:36;486.60;2380.80
16491;DHT22;8356;51.214;3.270;2022-10-31T13:08:18;486.60;2380.80
16491;DHT22;8356;51.214;3.270;2022-10-31T13:16:18;486.40;2380.80
16491;DHT22;8356;51.214;3.270;2022-10-31T13:21:33;486.40;2380.80
16491;DHT22;8356;51.214;3.270;2022-10-31T13:24:02;486.40;2380.80
16491;DHT22;8356;51.214;3.270;2022-10-31T13:26:54;486.40;2380.80
16491;DHT22;8356;51.214;3.270;2022-10-31T13:29:44;486.40;2380.80
16491;DHT22;8356;51.214;3.270;2022-10-31T13:32:12;486.40;2380.80
16491;DHT22;8356;51.214;3.270;2022-10-31T13:34:46;486.50;2380.80
16491;DHT22;8356;51.214;3.270;2022-10-31T13:40:20;486.60;2380.80
16491;DHT22;8356;51.214;3.270;2022-10-31T13:45:23;486.70;2380.80
16491;DHT22;8356;51.214;3.270;2022-10-31T13:48:17;486.70;2380.80
16491;DHT22;8356;51.214;3.270;2022-10-31T13:50:56;461.70;2380.80
16491;DHT22;8356;51.214;3.270;2022-10-31T13:53:34;486.60;2380.80
16491;DHT22;8356;51.214;3.270;2022-10-31T13:58:35;486.70;2380.80
16491;DHT22;8356;51.214;3.270;2022-10-31T14:01:15;486.70;2380.80
16491;DHT22;8356;51.214;3.270;2022-10-31T14:03:45;486.70;2380.80
16491;DHT22;8356;51.214;3.270;2022-10-31T14:06:12;486.70;2380.80
16491;DHT22;8356;51.214;3.270;2022-10-31T14:08:49;486.70;2380.80
16491;DHT22;8356;51.214;3.270;2022-10-31T14:11:24;486.70;2380.80
16491;DHT22;8356;51.214;3.270;2022-10-31T14:13:53;486.90;2380.80
16491;DHT22;8356;51.214;3.270;2022-10-31T14:16:26;486.70;2380.80
16491;DHT22;8356;51.214;3.270;2022-10-31T14:19:06;486.70;2380.80
16491;DHT22;8356;51.214;3.270;2022-10-31T14:21:46;486.70;2380.80
16491;DHT22;8356;51.214;3.270;2022-10-31T14:24:31;486.70;2380.80
16491;DHT22;8356;51.214;3.270;2022-10-31T14:27:03;486.70;2380.80
16491;DHT22;8356;51.214;3.270;2022-10-31T14:29:32;486.70;2380.80
16491;DHT22;8356;51.214;3.270;2022-10-31T14:32:05;486.70;2380.80
16491;DHT22;8356;51.214;3.270;2022-10-31T14:35:04;486.70;2380.80
16491;DHT22;8356;51.214;3.270;2022-10-31T14:40:17;486.70;2380.80
16491;DHT22;8356;51.214;3.270;2022-10-31T14:46:02;486.70;2380.80
16491;DHT22;8356;51.214;3.270;2022-10-31T14:51:23;486.60;2380.80
16491;DHT22;8356;51.214;3.270;2022-10-31T14:53:52;486.60;2380.80
16491;DHT22;8356;51.214;3.270;2022-10-31T14:56:39;486.50;2380.80
16491;DHT22;8356;51.214;3.270;2022-10-31T14:59:13;486.50;2380.80
16491;DHT22;8356;51.214;3.270;2022-10-31T15:01:53;486.50;2380.80
16491;DHT22;8356;51.214;3.270;2022-10-31T15:04:25;486.40;2380.80
16491;DHT22;8356;51.214;3.270;2022-10-31T15:07:04;486.40;2380.80
16491;DHT22;8356;51.214;3.270;2022-10-31T15:09:33;486.40;2380.80
16491;DHT22;8356;51.214;3.270;2022-10-31T15:12:23;486.40;2380.80
16491;DHT22;8356;51.214;3.270;2022-10-31T15:14:48;486.40;2380.80
16491;DHT22;8356;51.214;3.270;2022-10-31T15:17:14;486.40;2380.80
16491;DHT22;8356;51.214;3.270;2022-10-31T15:19:42;461.70;2380.80
16491;DHT22;8356;51.214;3.270;2022-10-31T15:22:13;486.90;2380.80
16491;DHT22;8356;51.214;3.270;2022-10-31T15:24:39;461.60;2380.80
16491;DHT22;8356;51.214;3.270;2022-10-31T15:27:05;461.60;2380.80
16491;DHT22;8356;51.214;3.270;2022-10-31T15:29:35;461.60;2380.80
16491;DHT22;8356;51.214;3.270;2022-10-31T15:32:18;461.60;2380.80
16491;DHT22;8356;51.214;3.270;2022-10-31T15:34:44;461.60;2380.80
16491;DHT22;8356;51.214;3.270;2022-10-31T15:37:15;461.60;2380.80
16491;DHT22;8356;51.214;3.270;2022-10-31T15:39:42;461.60;2380.80
16491;DHT22;8356;51.214;3.270;2022-10-31T15:42:30;461.60;2380.80
16491;DHT22;8356;51.214;3.270;2022-10-31T15:47:38;461.40;2380.80
16491;DHT22;8356;51.214;3.270;2022-10-31T15:50:23;461.40;2380.80
16491;DHT22;8356;51.214;3.270;2022-10-31T15:52:51;461.40;2380.80
16491;DHT22;8356;51.214;3.270;2022-10-31T15:55:24;461.40;2380.80
16491;DHT22;8356;51.214;3.270;2022-10-31T15:57:52;461.30;2380.80
16491;DHT22;8356;51.214;3.270;2022-10-31T16:00:29;461.30;2380.80
16491;DHT22;8356;51.214;3.270;2022-10-31T16:05:37;461.20;2380.80
16491;DHT22;8356;51.214;3.270;2022-10-31T16:08:03;461.10;2380.80
16491;DHT22;8356;51.214;3.270;2022-10-31T16:10:33;461.10;2380.80
16491;DHT22;8356;51.214;3.270;2022-10-31T16:13:00;461.10;2380.80
16491;DHT22;8356;51.214;3.270;2022-10-31T16:15:27;461.10;2380.80
16491;DHT22;8356;51.214;3.270;2022-10-31T16:17:55;461.00;2380.80
16491;DHT22;8356;51.214;3.270;2022-10-31T16:20:27;460.90;2380.80
16491;DHT22;8356;51.214;3.270;2022-10-31T16:22:55;461.00;2380.80
16491;DHT22;8356;51.214;3.270;2022-10-31T16:25:29;461.00;2380.80
16491;DHT22;8356;51.214;3.270;2022-10-31T16:28:05;461.00;2380.80
16491;DHT22;8356;51.214;3.270;2022-10-31T16:30:43;460.90;2380.80
16491;DHT22;8356;51.214;3.270;2022-10-31T16:33:32;460.80;2380.80
16491;DHT22;8356;51.214;3.270;2022-10-31T16:38:55;436.10;2355.20
16491;DHT22;8356;51.214;3.270;2022-10-31T16:41:21;460.80;2380.80
16491;DHT22;8356;51.214;3.270;2022-10-31T16:43:48;460.80;2380.80
16491;DHT22;8356;51.214;3.270;2022-10-31T16:46:25;436.10;2355.20
16491;DHT22;8356;51.214;3.270;2022-10-31T16:48:51;436.10;2355.20
16491;DHT22;8356;51.214;3.270;2022-10-31T16:51:17;436.10;2355.20
16491;DHT22;8356;51.214;3.270;2022-10-31T16:53:43;436.10;2355.20
16491;DHT22;8356;51.214;3.270;2022-10-31T16:56:17;436.10;2355.20
16491;DHT22;8356;51.214;3.270;2022-10-31T16:58:43;436.00;2355.20
16491;DHT22;8356;51.214;3.270;2022-10-31T17:01:10;435.90;2355.20
16491;DHT22;8356;51.214;3.270;2022-10-31T17:03:36;435.90;2355.20
16491;DHT22;8356;51.214;3.270;2022-10-31T17:06:02;435.90;2355.20
16491;DHT22;8356;51.214;3.270;2022-10-31T17:08:28;435.90;2355.20
16491;DHT22;8356;51.214;3.270;2022-10-31T17:10:55;435.80;2355.20
16491;DHT22;8356;51.214;3.270;2022-10-31T17:13:29;435.80;2355.20
16491;DHT22;8356;51.214;3.270;2022-10-31T17:15:57;435.70;2355.20
16491;DHT22;8356;51.214;3.270;2022-10-31T17:18:23;435.80;2355.20
16491;DHT22;8356;51.214;3.270;2022-10-31T17:20:49;435.70;2355.20
16491;DHT22;8356;51.214;3.270;2022-10-31T17:23:16;435.70;2355.20